createdAt,value
2023-05-10T00:01:47.524Z,0.98
2023-05-10T00:04:14.268Z,0.90
2023-05-10T00:06:40.959Z,2.03
2023-05-10T00:09:07.615Z,1.87
2023-05-10T00:11:34.171Z,2.17
2023-05-10T00:14:00.801Z,3.50
2023-05-10T00:16:27.377Z,3.22
2023-05-10T00:18:54.045Z,2.50
2023-05-10T00:21:21.023Z,4.20
2023-05-10T00:23:47.581Z,5.35
2023-05-10T00:26:14.390Z,5.47
2023-05-10T00:28:40.944Z,6.85
2023-05-10T00:31:07.650Z,8.60
2023-05-10T00:33:34.110Z,11.03
2023-05-10T00:36:00.824Z,9.32
2023-05-10T00:38:27.553Z,9.13
2023-05-10T00:40:54.232Z,9.40
2023-05-10T00:43:20.769Z,9.10
2023-05-10T00:45:47.785Z,9.97
2023-05-10T00:48:14.721Z,8.40
2023-05-10T00:50:41.564Z,9.70
2023-05-10T00:53:08.719Z,10.23
2023-05-10T00:55:35.552Z,9.50
2023-05-10T00:58:02.516Z,9.67
2023-05-10T01:00:30.580Z,10.20
2023-05-10T01:02:57.408Z,11.02
2023-05-10T01:05:24.219Z,10.75
2023-05-10T01:07:50.714Z,12.75
2023-05-10T01:10:17.887Z,13.47
2023-05-10T01:12:47.669Z,12.65
2023-05-10T01:15:16.401Z,12.27
2023-05-10T01:17:45.670Z,11.13
2023-05-10T01:20:13.860Z,10.93
2023-05-10T01:23:11.181Z,11.47
2023-05-10T01:26:15.018Z,11.68
2023-05-10T01:29:07.372Z,12.00
2023-05-10T01:31:51.870Z,11.85
2023-05-10T01:34:24.742Z,13.77
2023-05-10T01:37:13.435Z,12.27
2023-05-10T01:39:54.068Z,12.68
2023-05-10T01:42:29.929Z,12.80
2023-05-10T01:45:01.165Z,12.10
2023-05-10T01:47:43.568Z,12.00
2023-05-10T01:50:29.794Z,12.00
2023-05-10T01:52:59.225Z,12.52
2023-05-10T01:55:31.478Z,11.90
2023-05-10T01:58:15.219Z,12.02
2023-05-10T02:00:45.655Z,10.63
2023-05-10T02:03:14.874Z,6.67
2023-05-10T02:05:45.621Z,5.03
2023-05-10T02:08:14.680Z,4.93
2023-05-10T02:10:43.803Z,4.35
2023-05-10T02:13:12.681Z,4.40
2023-05-10T02:15:41.144Z,4.03
2023-05-10T02:18:10.350Z,4.00
2023-05-10T02:20:38.330Z,3.30
2023-05-10T02:23:06.318Z,3.20
2023-05-10T02:25:33.799Z,4.47
2023-05-10T02:28:02.989Z,4.33
2023-05-10T02:30:33.457Z,4.35
2023-05-10T02:33:01.203Z,3.80
2023-05-10T02:35:28.422Z,2.83
2023-05-10T02:37:55.780Z,3.85
2023-05-10T02:40:26.795Z,3.53
2023-05-10T02:42:57.493Z,3.70
2023-05-10T02:45:29.127Z,4.00
2023-05-10T02:47:56.718Z,3.97
2023-05-10T02:50:26.831Z,3.90
2023-05-10T02:52:57.150Z,4.50
2023-05-10T02:55:28.076Z,4.10
2023-05-10T02:58:00.484Z,3.95
2023-05-10T03:00:27.421Z,3.42
2023-05-10T03:02:54.462Z,3.53
2023-05-10T03:05:21.252Z,3.20
2023-05-10T03:07:51.571Z,2.20
2023-05-10T03:10:19.616Z,3.20
2023-05-10T03:12:55.400Z,3.05
2023-05-10T03:15:27.868Z,3.15
2023-05-10T03:18:08.052Z,3.43
2023-05-10T03:20:43.774Z,3.90
2023-05-10T03:23:21.968Z,3.92
2023-05-10T03:25:51.308Z,3.47
2023-05-10T03:28:19.541Z,4.22
2023-05-10T03:30:51.545Z,4.27
2023-05-10T03:33:18.105Z,4.15
2023-05-10T03:35:46.766Z,4.72
2023-05-10T03:38:14.012Z,4.50
2023-05-10T03:40:40.692Z,5.65
2023-05-10T03:43:07.237Z,7.10
2023-05-10T03:45:33.790Z,6.88
2023-05-10T03:48:00.373Z,9.57
2023-05-10T03:50:27.365Z,11.20
2023-05-10T03:52:54.875Z,9.10
2023-05-10T03:55:21.857Z,8.77
2023-05-10T03:57:50.657Z,9.52
2023-05-10T04:00:17.900Z,9.77
2023-05-10T04:02:46.060Z,8.63
2023-05-10T04:05:13.799Z,7.80
2023-05-10T04:07:40.386Z,7.27
2023-05-10T04:10:07.500Z,7.82
2023-05-10T04:12:34.016Z,7.95
2023-05-10T04:15:00.537Z,7.90
2023-05-10T04:17:27.200Z,9.63
2023-05-10T04:19:55.667Z,9.43
2023-05-10T04:22:22.355Z,11.00
2023-05-10T04:24:48.993Z,10.98
2023-05-10T04:27:15.526Z,11.43
2023-05-10T04:29:42.707Z,13.73
2023-05-10T04:32:11.116Z,12.00
2023-05-10T04:34:38.389Z,12.98
2023-05-10T04:37:05.162Z,13.05
2023-05-10T04:39:32.076Z,12.75
2023-05-10T04:41:58.727Z,14.27
2023-05-10T04:44:25.289Z,11.90
2023-05-10T04:46:51.912Z,12.52
2023-05-10T04:49:18.939Z,12.80
2023-05-10T04:51:45.511Z,13.88
2023-05-10T04:54:12.087Z,13.68
2023-05-10T04:56:38.775Z,11.60
2023-05-10T04:59:05.530Z,10.18
2023-05-10T05:01:32.239Z,10.35
2023-05-10T05:03:59.016Z,10.88
2023-05-10T05:06:26.133Z,8.30
2023-05-10T05:08:52.655Z,8.97
2023-05-10T05:11:19.231Z,9.07
2023-05-10T05:13:46.091Z,8.13
2023-05-10T05:16:12.703Z,8.65
2023-05-10T05:18:39.654Z,8.75
2023-05-10T05:21:19.841Z,9.17
2023-05-10T05:23:47.106Z,9.45
2023-05-10T05:26:13.736Z,10.18
2023-05-10T05:28:40.203Z,12.13
2023-05-10T05:31:10.242Z,11.55
2023-05-10T05:33:37.622Z,11.77
2023-05-10T05:36:06.601Z,14.02
2023-05-10T05:38:33.295Z,12.57
2023-05-10T05:41:00.380Z,12.65
2023-05-10T05:43:27.018Z,12.00
2023-05-10T05:45:55.037Z,10.87
2023-05-10T05:48:22.679Z,10.75
2023-05-10T05:50:49.240Z,12.00
2023-05-10T05:53:15.939Z,10.63
2023-05-10T05:55:53.001Z,9.57
2023-05-10T05:58:19.590Z,7.27
2023-05-10T06:00:46.136Z,5.38
2023-05-10T06:03:12.842Z,4.80
2023-05-10T06:05:39.511Z,3.45
2023-05-10T06:08:06.321Z,3.75
2023-05-10T06:10:32.924Z,3.07
2023-05-10T06:12:59.602Z,3.20
2023-05-10T06:15:27.110Z,3.05
2023-05-10T06:17:53.786Z,2.72
2023-05-10T06:20:20.438Z,3.03
2023-05-10T06:22:47.041Z,3.20
2023-05-10T06:25:13.870Z,2.45
2023-05-10T06:27:40.535Z,2.83
2023-05-10T06:30:12.860Z,3.20
2023-05-10T06:32:40.464Z,3.15
2023-05-10T06:35:07.776Z,3.00
2023-05-10T06:37:35.198Z,3.00
2023-05-10T06:40:03.159Z,3.15
2023-05-10T06:42:29.754Z,3.88
2023-05-10T06:44:56.281Z,3.47
2023-05-10T06:47:23.203Z,2.90
2023-05-10T06:49:49.734Z,2.90
2023-05-10T06:52:16.325Z,2.85
2023-05-10T06:54:42.859Z,3.33
2023-05-10T06:57:23.321Z,3.50
2023-05-10T06:59:57.365Z,3.03
2023-05-10T07:02:24.188Z,2.67
2023-05-10T07:04:51.134Z,3.53
2023-05-10T07:07:17.736Z,2.88
2023-05-10T07:09:44.312Z,2.97
2023-05-10T07:12:13.423Z,2.70
2023-05-10T07:14:41.490Z,3.28
2023-05-10T07:17:08.059Z,3.05
2023-05-10T07:19:34.912Z,3.85
2023-05-10T07:22:02.032Z,3.42
2023-05-10T07:24:28.543Z,2.63
2023-05-10T07:26:55.055Z,2.92
2023-05-10T07:29:21.613Z,2.50
2023-05-10T07:31:48.201Z,2.97
2023-05-10T07:34:14.814Z,3.25
2023-05-10T07:36:41.338Z,3.70
2023-05-10T07:39:08.489Z,3.10
2023-05-10T07:41:35.890Z,2.85
2023-05-10T07:44:02.757Z,2.50
2023-05-10T07:46:29.592Z,2.60
2023-05-10T07:48:56.550Z,2.70
2023-05-10T07:51:23.238Z,2.60
2023-05-10T07:53:49.853Z,3.15
2023-05-10T07:56:31.197Z,3.33
2023-05-10T07:58:57.794Z,3.00
2023-05-10T08:01:24.835Z,2.47
2023-05-10T08:03:52.118Z,2.60
2023-05-10T08:06:20.347Z,2.95
2023-05-10T08:08:50.528Z,3.17
2023-05-10T08:11:21.600Z,2.72
2023-05-10T08:13:49.559Z,2.77
2023-05-10T08:16:16.729Z,2.28
2023-05-10T08:18:46.006Z,2.72
2023-05-10T08:21:12.565Z,2.92
2023-05-10T08:23:39.236Z,3.00
2023-05-10T08:26:06.102Z,3.13
2023-05-10T08:28:32.779Z,2.83
2023-05-10T08:30:59.432Z,2.95
2023-05-10T08:33:26.151Z,2.17
2023-05-10T08:35:53.285Z,2.25
2023-05-10T08:38:19.787Z,2.10
2023-05-10T08:40:47.186Z,2.28
2023-05-10T08:43:16.235Z,2.25
2023-05-10T08:45:44.320Z,2.22
2023-05-10T08:48:12.333Z,2.50
2023-05-10T08:50:41.008Z,2.87
2023-05-10T08:53:12.510Z,2.20
2023-05-10T08:55:41.067Z,2.30
2023-05-10T08:58:08.064Z,2.30
2023-05-10T09:00:36.014Z,2.13
2023-05-10T09:03:04.741Z,2.20
2023-05-10T09:05:31.730Z,2.22
2023-05-10T09:07:59.799Z,2.17
2023-05-10T09:10:28.217Z,2.17
2023-05-10T09:12:59.196Z,2.35
2023-05-10T09:15:27.014Z,2.30
2023-05-10T09:17:53.887Z,2.08
2023-05-10T09:20:20.647Z,2.10
2023-05-10T09:22:47.319Z,2.35
2023-05-10T09:25:17.984Z,2.38
2023-05-10T09:27:49.006Z,2.03
2023-05-10T09:30:25.615Z,2.10
2023-05-10T09:32:52.779Z,1.83
2023-05-10T09:35:21.636Z,1.90
2023-05-10T09:37:50.672Z,2.28
2023-05-10T09:40:19.251Z,1.97
2023-05-10T09:43:01.970Z,1.98
2023-05-10T09:45:30.805Z,1.85
2023-05-10T09:47:58.451Z,2.28
2023-05-10T09:50:25.383Z,2.53
2023-05-10T09:52:54.570Z,2.37
2023-05-10T09:55:23.694Z,2.22
2023-05-10T09:57:59.158Z,3.00
2023-05-10T10:00:26.128Z,2.90
2023-05-10T10:02:57.963Z,2.95
2023-05-10T10:05:31.794Z,2.47
2023-05-10T10:07:59.557Z,2.42
2023-05-10T10:10:27.182Z,3.00
2023-05-10T10:12:54.879Z,2.90
2023-05-10T10:15:23.128Z,3.15
2023-05-10T10:17:51.484Z,2.93
2023-05-10T10:20:19.576Z,3.00
2023-05-10T10:22:47.926Z,3.47
2023-05-10T10:25:18.026Z,3.33
2023-05-10T10:27:53.814Z,3.83
2023-05-10T10:30:38.374Z,3.33
2023-05-10T10:33:28.739Z,3.50
2023-05-10T10:35:59.051Z,3.65
2023-05-10T10:38:25.752Z,3.60
2023-05-10T10:41:11.118Z,4.00
2023-05-10T10:43:37.676Z,3.50
2023-05-10T10:46:18.706Z,3.60
2023-05-10T10:48:52.564Z,3.70
2023-05-10T10:51:19.372Z,3.95
2023-05-10T10:53:49.094Z,4.10
2023-05-10T10:56:16.551Z,4.20
2023-05-10T10:58:52.294Z,4.50
2023-05-10T11:01:19.809Z,4.18
2023-05-10T11:04:01.585Z,3.90
2023-05-10T11:06:36.167Z,4.10
2023-05-10T11:09:10.302Z,3.87
2023-05-10T11:11:49.164Z,4.05
2023-05-10T11:14:20.702Z,3.83
2023-05-10T11:16:47.302Z,3.78
2023-05-10T11:19:18.137Z,4.20
2023-05-10T11:21:54.804Z,3.57
2023-05-10T11:24:23.958Z,4.00
2023-05-10T11:26:52.346Z,4.47
2023-05-10T11:29:19.003Z,4.10
2023-05-10T11:31:47.582Z,4.13
2023-05-10T11:34:37.783Z,3.97
2023-05-10T11:37:04.368Z,3.85
2023-05-10T11:39:32.578Z,4.20
2023-05-10T11:41:59.916Z,3.70
2023-05-10T11:44:33.818Z,4.30
2023-05-10T11:47:01.791Z,4.23
2023-05-10T11:49:28.697Z,3.92
2023-05-10T11:52:05.272Z,3.88
2023-05-10T11:54:32.055Z,4.15
2023-05-10T11:56:58.646Z,4.50
2023-05-10T11:59:26.326Z,4.07
2023-05-10T12:01:53.228Z,3.67
2023-05-10T12:04:20.450Z,4.60
2023-05-10T12:06:47.652Z,4.03
2023-05-10T12:09:14.127Z,3.97
2023-05-10T12:11:44.175Z,4.10
2023-05-10T12:14:11.680Z,3.38
2023-05-10T12:16:38.291Z,3.67
2023-05-10T12:19:05.105Z,3.42
2023-05-10T12:21:32.370Z,3.00
2023-05-10T12:24:08.328Z,3.20
2023-05-10T12:26:36.288Z,3.80
2023-05-10T12:29:17.122Z,3.38
2023-05-10T12:32:00.528Z,3.03
2023-05-10T12:34:39.831Z,3.65
2023-05-10T12:37:06.538Z,3.40
2023-05-10T12:39:43.704Z,3.67
2023-05-10T12:42:11.398Z,3.03
2023-05-10T12:44:37.996Z,3.22
2023-05-10T12:47:04.575Z,3.72
2023-05-10T12:49:31.131Z,3.93
2023-05-10T12:51:57.768Z,3.97
2023-05-10T12:54:24.265Z,3.70
2023-05-10T12:56:50.791Z,3.38
2023-05-10T12:59:17.388Z,3.03
2023-05-10T13:01:43.906Z,4.00
2023-05-10T13:04:10.458Z,3.67
2023-05-10T13:06:37.132Z,3.58
2023-05-10T13:09:04.642Z,3.25
2023-05-10T13:11:31.301Z,3.47
2023-05-10T13:13:57.869Z,3.23
2023-05-10T13:16:24.397Z,3.40
2023-05-10T13:18:53.125Z,2.97
2023-05-10T13:21:19.747Z,2.47
2023-05-10T13:23:47.478Z,2.67
2023-05-10T13:26:14.245Z,3.33
2023-05-10T13:28:41.600Z,3.42
2023-05-10T13:31:09.029Z,3.05
2023-05-10T13:33:35.617Z,3.78
2023-05-10T13:36:02.267Z,3.00
2023-05-10T13:38:28.738Z,3.80
2023-05-10T13:40:55.271Z,3.13
2023-05-10T13:43:21.842Z,3.33
2023-05-10T13:45:48.303Z,3.70
2023-05-10T13:48:14.798Z,4.68
2023-05-10T13:50:41.355Z,4.80
2023-05-10T13:53:07.922Z,4.72
2023-05-10T13:55:34.683Z,4.82
2023-05-10T13:58:01.209Z,4.35
2023-05-10T14:00:28.174Z,6.07
2023-05-10T14:02:54.917Z,4.97
2023-05-10T14:05:25.512Z,4.93
2023-05-10T14:07:52.846Z,4.88
2023-05-10T14:10:19.449Z,4.75
2023-05-10T14:12:45.970Z,4.68
2023-05-10T14:15:12.716Z,3.83
2023-05-10T14:17:39.430Z,4.18
2023-05-10T14:20:07.003Z,3.95
2023-05-10T14:22:33.593Z,3.88
2023-05-10T14:25:00.368Z,3.50
2023-05-10T14:27:27.033Z,3.30
2023-05-10T14:29:54.448Z,4.00
2023-05-10T14:32:21.069Z,3.78
2023-05-10T14:34:47.598Z,4.10
2023-05-10T14:37:15.189Z,4.45
2023-05-10T14:39:43.416Z,4.40
2023-05-10T14:42:11.225Z,4.50
2023-05-10T14:44:38.302Z,4.75
2023-05-10T14:47:04.990Z,4.63
2023-05-10T14:49:31.798Z,5.32
2023-05-10T14:51:58.279Z,4.73
2023-05-10T14:54:24.762Z,5.43
2023-05-10T14:56:51.330Z,6.00
2023-05-10T14:59:17.867Z,6.07
2023-05-10T15:01:45.194Z,5.60
2023-05-10T15:04:13.977Z,5.83
2023-05-10T15:06:41.024Z,5.63
2023-05-10T15:09:07.540Z,6.82
2023-05-10T15:11:34.137Z,6.22
2023-05-10T15:14:00.738Z,6.10
2023-05-10T15:16:27.389Z,6.00
2023-05-10T15:18:54.269Z,6.50
2023-05-10T15:21:20.761Z,5.68
2023-05-10T15:23:47.262Z,6.50
2023-05-10T15:26:13.733Z,5.75
2023-05-10T15:28:40.221Z,5.53
2023-05-10T15:31:06.760Z,5.00
2023-05-10T15:33:33.656Z,5.38
2023-05-10T15:36:00.118Z,4.53
2023-05-10T15:38:26.880Z,4.18
2023-05-10T15:40:58.780Z,4.30
2023-05-10T15:43:25.326Z,4.53
2023-05-10T15:45:51.822Z,5.68
2023-05-10T15:48:18.336Z,5.78
2023-05-10T15:50:45.020Z,5.28
2023-05-10T15:53:11.669Z,5.83
2023-05-10T15:55:38.200Z,6.00
2023-05-10T15:58:04.678Z,6.57
2023-05-10T16:00:31.342Z,5.30
2023-05-10T16:02:58.000Z,5.93
2023-05-10T16:05:24.896Z,6.47
2023-05-10T16:07:51.592Z,5.63
2023-05-10T16:10:18.186Z,6.05
2023-05-10T16:12:44.779Z,5.53
2023-05-10T16:15:11.512Z,5.95
2023-05-10T16:17:38.140Z,5.87
2023-05-10T16:20:06.142Z,6.25
2023-05-10T16:22:32.731Z,6.88
2023-05-10T16:24:59.691Z,7.05
2023-05-10T16:27:28.718Z,5.47
2023-05-10T16:29:55.439Z,6.50
2023-05-10T16:32:22.300Z,7.20
2023-05-10T16:34:50.249Z,6.53
2023-05-10T16:37:16.997Z,6.72
2023-05-10T16:39:43.998Z,7.82
2023-05-10T16:42:10.992Z,6.63
2023-05-10T16:44:37.482Z,7.70
2023-05-10T16:47:03.973Z,8.00
2023-05-10T16:49:30.692Z,6.97
2023-05-10T16:51:57.447Z,7.68
2023-05-10T16:54:23.970Z,7.50
2023-05-10T16:56:50.564Z,7.70
2023-05-10T16:59:17.438Z,8.90
2023-05-10T17:01:45.049Z,8.30
2023-05-10T17:04:11.776Z,6.72
2023-05-10T17:06:38.686Z,7.93
2023-05-10T17:09:05.846Z,6.88
2023-05-10T17:11:32.765Z,6.93
2023-05-10T17:14:01.423Z,6.70
2023-05-10T17:16:29.646Z,7.03
2023-05-10T17:18:56.768Z,6.10
2023-05-10T17:21:23.395Z,7.85
2023-05-10T17:23:50.115Z,7.07
2023-05-10T17:26:17.117Z,7.10
2023-05-10T17:28:43.686Z,6.90
2023-05-10T17:31:10.403Z,6.20
2023-05-10T17:33:36.978Z,7.32
2023-05-10T17:36:03.913Z,6.32
2023-05-10T17:38:30.496Z,7.07
2023-05-10T17:40:57.013Z,5.80
2023-05-10T17:43:23.855Z,6.07
2023-05-10T17:45:50.468Z,5.85
2023-05-10T17:48:17.411Z,5.90
2023-05-10T17:50:44.556Z,6.93
2023-05-10T17:53:11.237Z,5.88
2023-05-10T17:55:41.202Z,6.93
2023-05-10T17:58:08.577Z,6.55
2023-05-10T18:00:35.961Z,6.13
2023-05-10T18:03:03.729Z,5.50
2023-05-10T18:05:30.901Z,5.47
2023-05-10T18:07:57.558Z,6.80
2023-05-10T18:10:26.056Z,6.35
2023-05-10T18:12:52.626Z,7.07
2023-05-10T18:15:19.435Z,6.32
2023-05-10T18:17:46.134Z,5.88
2023-05-10T18:20:13.028Z,5.73
2023-05-10T18:22:39.982Z,5.43
2023-05-10T18:25:07.107Z,4.80
2023-05-10T18:27:34.370Z,4.90
2023-05-10T18:30:01.141Z,4.90
2023-05-10T18:32:27.982Z,5.27
2023-05-10T18:34:55.768Z,4.45
2023-05-10T18:37:22.568Z,5.38
2023-05-10T18:39:49.317Z,5.35
2023-05-10T18:42:16.426Z,4.65
2023-05-10T18:44:43.580Z,4.87
2023-05-10T18:47:11.700Z,5.45
2023-05-10T18:49:40.023Z,5.28
2023-05-10T18:52:06.613Z,4.93
2023-05-10T18:54:33.116Z,5.38
2023-05-10T18:56:59.684Z,5.20
2023-05-10T18:59:27.834Z,5.35
2023-05-10T19:01:55.747Z,4.00
2023-05-10T19:04:23.879Z,4.90
2023-05-10T19:06:50.502Z,4.85
2023-05-10T19:09:20.025Z,5.57
2023-05-10T19:11:46.623Z,5.38
2023-05-10T19:14:13.127Z,5.32
2023-05-10T19:16:42.658Z,5.55
2023-05-10T19:19:10.169Z,5.00
2023-05-10T19:21:36.716Z,4.73
2023-05-10T19:24:03.360Z,6.15
2023-05-10T19:26:30.175Z,5.70
2023-05-10T19:28:57.637Z,5.45
2023-05-10T19:31:24.760Z,5.60
2023-05-10T19:33:51.431Z,5.33
2023-05-10T19:36:18.027Z,4.55
2023-05-10T19:38:44.594Z,6.32
2023-05-10T19:41:11.715Z,7.05
2023-05-10T19:43:39.570Z,7.00
2023-05-10T19:46:06.259Z,7.17
2023-05-10T19:48:32.801Z,6.35
2023-05-10T19:51:01.578Z,7.35
2023-05-10T19:53:28.607Z,7.28
2023-05-10T19:55:56.308Z,7.03
2023-05-10T19:58:23.506Z,6.27
2023-05-10T20:00:50.031Z,23.48
2023-05-10T20:03:16.737Z,17.67
2023-05-10T20:05:43.360Z,13.90
2023-05-10T20:08:09.988Z,11.23
2023-05-10T20:10:36.524Z,8.83
2023-05-10T20:13:03.137Z,7.90
2023-05-10T20:15:29.693Z,6.97
2023-05-10T20:17:56.243Z,6.20
2023-05-10T20:20:22.818Z,6.10
2023-05-10T20:22:50.083Z,5.47
2023-05-10T20:25:17.460Z,5.53
2023-05-10T20:27:44.069Z,5.97
2023-05-10T20:30:11.030Z,5.70
2023-05-10T20:32:38.365Z,5.55
2023-05-10T20:35:05.945Z,5.60
2023-05-10T20:37:32.507Z,6.80
2023-05-10T20:39:59.008Z,6.47
2023-05-10T20:42:25.512Z,6.10
2023-05-10T20:44:52.040Z,6.07
2023-05-10T20:47:18.668Z,5.53
2023-05-10T20:49:45.212Z,5.72
2023-05-10T20:52:11.741Z,6.80
2023-05-10T20:54:38.201Z,5.60
2023-05-10T20:57:04.807Z,6.13
2023-05-10T20:59:31.296Z,5.80
2023-05-10T21:01:58.051Z,6.88
2023-05-10T21:04:25.897Z,6.18
2023-05-10T21:06:53.084Z,6.07
2023-05-10T21:09:19.701Z,6.28
2023-05-10T21:11:46.377Z,5.43
2023-05-10T21:14:12.987Z,6.50
2023-05-10T21:16:39.902Z,5.50
2023-05-10T21:19:07.650Z,5.75
2023-05-10T21:21:34.413Z,6.53
2023-05-10T21:24:01.037Z,6.60
2023-05-10T21:26:27.541Z,6.47
2023-05-10T21:28:54.164Z,6.10
2023-05-10T21:31:20.733Z,5.00
2023-05-10T21:33:47.307Z,6.38
2023-05-10T21:36:14.091Z,6.30
2023-05-10T21:38:41.067Z,6.65
2023-05-10T21:41:08.091Z,5.82
2023-05-10T21:43:34.895Z,6.38
2023-05-10T21:46:01.599Z,5.90
2023-05-10T21:48:28.215Z,6.00
2023-05-10T21:50:54.806Z,5.53
2023-05-10T21:53:22.333Z,5.82
2023-05-10T21:55:49.070Z,4.82
2023-05-10T21:58:15.750Z,5.10
2023-05-10T22:00:42.304Z,5.83
2023-05-10T22:03:08.931Z,5.40
2023-05-10T22:05:35.644Z,4.93
2023-05-10T22:08:02.158Z,5.35
2023-05-10T22:10:28.691Z,4.22
2023-05-10T22:12:55.298Z,4.60
2023-05-10T22:15:21.912Z,4.47
2023-05-10T22:17:48.519Z,5.03
2023-05-10T22:20:15.519Z,5.28
2023-05-10T22:22:42.203Z,4.93
2023-05-10T22:25:09.011Z,4.63
2023-05-10T22:27:35.854Z,5.22
2023-05-10T22:30:03.081Z,6.05
2023-05-10T22:32:30.760Z,5.15
2023-05-10T22:34:57.398Z,4.32
2023-05-10T22:37:23.908Z,5.37
2023-05-10T22:39:50.509Z,5.10
2023-05-10T22:42:17.061Z,5.88
2023-05-10T22:44:44.335Z,5.47
2023-05-10T22:47:11.171Z,5.20
2023-05-10T22:49:38.013Z,5.27
2023-05-10T22:52:04.636Z,5.50
2023-05-10T22:54:31.118Z,4.50
2023-05-10T22:56:57.831Z,5.57
2023-05-10T22:59:24.335Z,5.40
2023-05-10T23:01:51.181Z,5.03
2023-05-10T23:04:18.072Z,4.63
2023-05-10T23:06:45.628Z,5.40
2023-05-10T23:09:12.160Z,6.03
2023-05-10T23:11:38.651Z,5.45
2023-05-10T23:14:05.162Z,4.93
2023-05-10T23:16:31.763Z,5.05
2023-05-10T23:18:58.342Z,4.75
2023-05-10T23:21:25.480Z,4.93
2023-05-10T23:23:52.455Z,5.13
2023-05-10T23:26:19.095Z,4.80
2023-05-10T23:28:45.745Z,4.55
2023-05-10T23:31:12.253Z,4.82
2023-05-10T23:33:38.780Z,5.20
2023-05-10T23:36:05.716Z,4.50
2023-05-10T23:38:32.244Z,5.03
2023-05-10T23:40:58.749Z,4.60
2023-05-10T23:43:25.549Z,4.57
2023-05-10T23:45:53.921Z,4.80
2023-05-10T23:48:20.667Z,4.28
2023-05-10T23:50:47.513Z,3.90
2023-05-10T23:53:14.193Z,4.32
2023-05-10T23:55:40.678Z,3.90
2023-05-10T23:58:07.221Z,5.32
